AIC116A KJFK-VABB
Flight info
| Callsign | AIC116A |
|---|---|
| Flight time | N/A |
| Altitude | 29000 |
| Route | MERIT DCT HFD DCT SCUPP Q475 SCOTS N267B NICSO/M085F310 DCT 48N050W 48N040W 48N030W 46N020W DCT KOPAS/N0490F330 DCT STG DCT SUSOS/N0489F320 N725 ELSAP/N0483F340 N725 OSPOK/N0489F330 DCT NOLVI DCT ORKUM/N0485F340 DCT ELSAG DCT ALG/N0490F330 DCT TADIX DCT ORTAP/N0486F350 DCT ARLOS UN4 SALUN N705 MMA DCT OBRAN L321 REXUM M872 PMA Y214 RAPMA DCT MEVDO DCT ALROK/N0493F370 DCT DEBIN DCT MIDGU M440 TULBU N881 AMBOS M700 PARAR N571 SUGID KETOR2A |
| Aircraft | B77W/H-SDE1E2E3FGHIJ2J3J4J5M1RWXY/LB1D1 |
Departure
| Time | N/A |
|---|---|
| Airport | John F. Kennedy International Airport (KJFK) |
Arrival
| Time | 2026-05-07 11:38 |
|---|---|
| Airport | Chhatrapati Shivaji Maharaj International Airport (VABB) |
| Time | Latitude | Longitude | Altitude | Speed | Heading |
|---|---|---|---|---|---|
| 2026-05-07 08:50 | 22.07863 | 51.90582 | 36832 ft | 506 kts | 105° |
| 2026-05-07 08:50 | 22.06228 | 51.97971 | 36831 ft | 508 kts | 105° |
| 2026-05-07 08:51 | 22.04582 | 52.05398 | 36831 ft | 510 kts | 105° |
| 2026-05-07 08:51 | 22.02926 | 52.12852 | 36829 ft | 512 kts | 105° |
| 2026-05-07 08:52 | 22.01268 | 52.20303 | 36824 ft | 512 kts | 105° |
| 2026-05-07 08:52 | 21.99602 | 52.27769 | 36824 ft | 512 kts | 105° |
| 2026-05-07 08:53 | 21.97937 | 52.35214 | 36827 ft | 511 kts | 105° |
| 2026-05-07 08:53 | 21.96559 | 52.41364 | 36825 ft | 510 kts | 105° |
| 2026-05-07 08:54 | 21.94894 | 52.48779 | 36827 ft | 509 kts | 105° |
| 2026-05-07 08:54 | 21.93227 | 52.56191 | 36823 ft | 509 kts | 105° |
| 2026-05-07 08:55 | 21.91559 | 52.63595 | 36823 ft | 508 kts | 105° |
| 2026-05-07 08:55 | 21.90018 | 52.71016 | 36823 ft | 508 kts | 100° |
| 2026-05-07 08:56 | 21.89445 | 52.78552 | 36834 ft | 509 kts | 94° |
| 2026-05-07 08:56 | 21.89081 | 52.86210 | 36827 ft | 509 kts | 94° |
| 2026-05-07 08:57 | 21.88694 | 52.93770 | 36828 ft | 509 kts | 94° |
| 2026-05-07 08:57 | 21.88270 | 53.01379 | 36829 ft | 509 kts | 95° |
| 2026-05-07 08:58 | 21.87831 | 53.08999 | 36831 ft | 510 kts | 95° |
| 2026-05-07 08:58 | 21.87390 | 53.16619 | 36829 ft | 510 kts | 95° |
| 2026-05-07 08:59 | 21.86947 | 53.24248 | 36831 ft | 510 kts | 95° |
| 2026-05-07 08:59 | 21.86501 | 53.31873 | 36831 ft | 510 kts | 95° |
| 2026-05-07 09:00 | 21.86052 | 53.39499 | 36828 ft | 510 kts | 95° |
| 2026-05-07 09:00 | 21.85600 | 53.47112 | 36831 ft | 510 kts | 95° |
| 2026-05-07 09:01 | 21.85145 | 53.54718 | 36828 ft | 509 kts | 95° |
| 2026-05-07 09:01 | 21.84687 | 53.62313 | 36837 ft | 509 kts | 95° |
| 2026-05-07 09:02 | 21.84225 | 53.69908 | 36835 ft | 508 kts | 95° |
| 2026-05-07 09:02 | 21.83763 | 53.77447 | 36840 ft | 508 kts | 95° |
| 2026-05-07 09:03 | 21.83295 | 53.85035 | 36836 ft | 508 kts | 95° |
| 2026-05-07 09:03 | 21.82823 | 53.92629 | 36833 ft | 508 kts | 95° |
| 2026-05-07 09:04 | 21.82348 | 54.00211 | 36842 ft | 508 kts | 95° |
| 2026-05-07 09:04 | 21.81871 | 54.07784 | 36843 ft | 508 kts | 95° |
| 2026-05-07 09:05 | 21.81389 | 54.15368 | 36835 ft | 508 kts | 95° |
| 2026-05-07 09:05 | 21.80904 | 54.22949 | 36838 ft | 508 kts | 95° |
| 2026-05-07 09:06 | 21.80417 | 54.30527 | 36837 ft | 507 kts | 95° |
| 2026-05-07 09:06 | 21.79926 | 54.38094 | 36839 ft | 507 kts | 95° |
| 2026-05-07 09:07 | 21.79433 | 54.45668 | 36841 ft | 507 kts | 95° |
| 2026-05-07 09:07 | 21.79475 | 54.53222 | 36841 ft | 506 kts | 77° |
| 2026-05-07 09:08 | 21.80591 | 54.56802 | 36848 ft | 506 kts | 64° |
| 2026-05-07 09:08 | 21.82396 | 54.60039 | 36835 ft | 505 kts | 50° |
| 2026-05-07 09:08 | 21.87068 | 54.65659 | 36841 ft | 505 kts | 47° |
| 2026-05-07 09:09 | 21.91783 | 54.71307 | 36849 ft | 509 kts | 47° |
| 2026-05-07 09:09 | 21.96469 | 54.77039 | 36850 ft | 511 kts | 48° |
| 2026-05-07 09:10 | 22.01151 | 54.82823 | 36842 ft | 512 kts | 48° |
| 2026-05-07 09:10 | 22.05838 | 54.88623 | 36849 ft | 513 kts | 48° |
| 2026-05-07 09:11 | 22.10516 | 54.94411 | 36838 ft | 512 kts | 48° |
| 2026-05-07 09:11 | 22.15185 | 55.00190 | 36842 ft | 510 kts | 48° |
| 2026-05-07 09:12 | 22.19816 | 55.05929 | 36849 ft | 509 kts | 48° |
| 2026-05-07 09:12 | 22.24456 | 55.11687 | 36846 ft | 508 kts | 48° |
| 2026-05-07 09:13 | 22.29092 | 55.17444 | 36851 ft | 507 kts | 48° |
| 2026-05-07 09:13 | 22.33714 | 55.23192 | 36851 ft | 507 kts | 48° |
| 2026-05-07 09:14 | 22.38343 | 55.28953 | 36859 ft | 507 kts | 48° |
| 2026-05-07 09:14 | 22.42905 | 55.34762 | 36856 ft | 508 kts | 53° |
| 2026-05-07 09:15 | 22.46615 | 55.41257 | 36861 ft | 509 kts | 63° |
| 2026-05-07 09:15 | 22.49366 | 55.48308 | 36876 ft | 509 kts | 68° |
| 2026-05-07 09:16 | 22.51965 | 55.55446 | 36864 ft | 510 kts | 68° |
| 2026-05-07 09:16 | 22.54597 | 55.62583 | 36868 ft | 511 kts | 68° |
| 2026-05-07 09:17 | 22.57259 | 55.69716 | 36871 ft | 511 kts | 68° |
| 2026-05-07 09:17 | 22.59910 | 55.76806 | 36873 ft | 512 kts | 68° |
| 2026-05-07 09:18 | 22.62576 | 55.83957 | 36875 ft | 512 kts | 68° |
| 2026-05-07 09:18 | 22.65235 | 55.91102 | 36883 ft | 511 kts | 68° |
| 2026-05-07 09:19 | 22.67888 | 55.98246 | 36884 ft | 511 kts | 68° |
| 2026-05-07 09:19 | 22.70538 | 56.05392 | 36888 ft | 511 kts | 68° |
| 2026-05-07 09:20 | 22.73179 | 56.12525 | 36893 ft | 511 kts | 68° |
| 2026-05-07 09:20 | 22.75820 | 56.19669 | 36893 ft | 510 kts | 68° |
| 2026-05-07 09:21 | 22.78459 | 56.26817 | 36894 ft | 510 kts | 68° |
| 2026-05-07 09:21 | 22.81090 | 56.33955 | 36900 ft | 510 kts | 68° |
| 2026-05-07 09:22 | 22.83394 | 56.41214 | 36897 ft | 510 kts | 77° |
| 2026-05-07 09:22 | 22.84815 | 56.48746 | 36908 ft | 510 kts | 79° |
| 2026-05-07 09:23 | 22.86179 | 56.56302 | 36914 ft | 510 kts | 79° |
| 2026-05-07 09:23 | 22.87583 | 56.63854 | 36919 ft | 511 kts | 79° |
| 2026-05-07 09:24 | 22.88999 | 56.71345 | 36925 ft | 511 kts | 79° |
| 2026-05-07 09:24 | 22.90425 | 56.78895 | 36933 ft | 511 kts | 79° |
| 2026-05-07 09:25 | 22.91845 | 56.86446 | 36944 ft | 511 kts | 79° |
| 2026-05-07 09:25 | 22.93258 | 56.93991 | 36945 ft | 511 kts | 79° |
| 2026-05-07 09:26 | 22.94680 | 57.01603 | 36949 ft | 511 kts | 79° |
| 2026-05-07 09:26 | 22.96061 | 57.09017 | 36958 ft | 511 kts | 79° |
| 2026-05-07 09:27 | 22.97465 | 57.16574 | 36952 ft | 511 kts | 79° |
| 2026-05-07 09:28 | 22.99567 | 57.27921 | 36953 ft | 512 kts | 79° |
| 2026-05-07 09:28 | 23.00369 | 57.35580 | 36957 ft | 511 kts | 89° |
| 2026-05-07 09:29 | 23.00556 | 57.43295 | 36948 ft | 511 kts | 89° |
| 2026-05-07 09:29 | 23.00747 | 57.51009 | 36944 ft | 512 kts | 89° |
| 2026-05-07 09:30 | 23.00982 | 57.58739 | 36943 ft | 512 kts | 89° |
| 2026-05-07 09:30 | 23.01226 | 57.66468 | 36940 ft | 512 kts | 89° |
| 2026-05-07 09:31 | 23.01465 | 57.74188 | 36917 ft | 512 kts | 89° |
| 2026-05-07 09:31 | 23.01698 | 57.81923 | 36895 ft | 513 kts | 89° |
| 2026-05-07 09:32 | 23.01869 | 57.89659 | 36893 ft | 512 kts | 90° |
| 2026-05-07 09:32 | 23.01852 | 57.97396 | 36882 ft | 512 kts | 91° |
| 2026-05-07 09:33 | 23.01817 | 58.05132 | 36879 ft | 512 kts | 91° |
| 2026-05-07 09:33 | 23.01811 | 58.12873 | 36877 ft | 512 kts | 91° |
| 2026-05-07 09:34 | 23.01813 | 58.20552 | 36852 ft | 512 kts | 91° |
| 2026-05-07 09:34 | 23.01809 | 58.28284 | 36849 ft | 511 kts | 91° |
| 2026-05-07 09:35 | 23.01801 | 58.36005 | 36852 ft | 511 kts | 91° |
| 2026-05-07 09:35 | 23.01911 | 58.43736 | 36858 ft | 512 kts | 88° |
| 2026-05-07 09:36 | 23.02220 | 58.51456 | 36840 ft | 512 kts | 88° |
| 2026-05-07 09:36 | 23.02523 | 58.59174 | 36833 ft | 512 kts | 88° |
| 2026-05-07 09:37 | 23.02785 | 58.66840 | 36839 ft | 512 kts | 89° |
| 2026-05-07 09:37 | 23.03031 | 58.74564 | 36833 ft | 512 kts | 89° |
| 2026-05-07 09:38 | 23.03276 | 58.82292 | 36827 ft | 512 kts | 89° |
| 2026-05-07 09:38 | 23.03522 | 58.90033 | 36827 ft | 513 kts | 89° |
| 2026-05-07 09:39 | 23.03765 | 58.97774 | 36818 ft | 513 kts | 89° |
| 2026-05-07 09:39 | 23.03993 | 59.05503 | 36829 ft | 512 kts | 89° |
| 2026-05-07 09:40 | 23.04178 | 59.11930 | 36835 ft | 511 kts | 89° |
| 2026-05-07 09:40 | 23.04401 | 59.19647 | 36826 ft | 511 kts | 89° |
| 2026-05-07 09:41 | 23.04621 | 59.27369 | 36821 ft | 511 kts | 89° |
| 2026-05-07 09:41 | 23.04837 | 59.35084 | 36825 ft | 512 kts | 89° |
| 2026-05-07 09:42 | 23.05014 | 59.42816 | 36809 ft | 512 kts | 90° |
| 2026-05-07 09:42 | 23.05124 | 59.50550 | 36804 ft | 512 kts | 90° |
| 2026-05-07 09:43 | 23.05233 | 59.58281 | 36800 ft | 513 kts | 90° |
| 2026-05-07 09:43 | 23.05350 | 59.66026 | 36800 ft | 513 kts | 89° |
| 2026-05-07 09:44 | 23.05466 | 59.73722 | 36799 ft | 513 kts | 89° |
| 2026-05-07 09:44 | 23.05579 | 59.81460 | 36796 ft | 513 kts | 89° |
| 2026-05-07 09:45 | 23.05595 | 59.89204 | 36806 ft | 512 kts | 94° |
| 2026-05-07 09:45 | 23.04598 | 59.96839 | 36811 ft | 511 kts | 102° |
| 2026-05-07 09:46 | 23.03161 | 60.04396 | 36806 ft | 511 kts | 103° |
| 2026-05-07 09:46 | 23.01735 | 60.11959 | 36807 ft | 511 kts | 102° |
| 2026-05-07 09:47 | 23.00343 | 60.19528 | 36809 ft | 512 kts | 102° |
| 2026-05-07 09:47 | 22.98960 | 60.27116 | 36809 ft | 512 kts | 102° |
| 2026-05-07 09:48 | 22.97577 | 60.34688 | 36806 ft | 512 kts | 102° |
| 2026-05-07 09:48 | 22.96183 | 60.42287 | 36807 ft | 513 kts | 102° |
| 2026-05-07 09:48 | 22.95498 | 60.46016 | 36786 ft | 497 kts | 102° |
| 2026-05-07 09:49 | 22.94820 | 60.49696 | 36802 ft | 501 kts | 102° |
| 2026-05-07 09:49 | 22.93436 | 60.57183 | 36819 ft | 510 kts | 102° |
| 2026-05-07 09:50 | 22.92029 | 60.64779 | 36812 ft | 515 kts | 102° |
| 2026-05-07 09:50 | 22.90621 | 60.72369 | 36807 ft | 516 kts | 102° |
| 2026-05-07 09:51 | 22.89192 | 60.80047 | 36802 ft | 516 kts | 102° |
| 2026-05-07 09:51 | 22.87776 | 60.87629 | 36804 ft | 515 kts | 102° |
| 2026-05-07 09:52 | 22.86352 | 60.95238 | 36808 ft | 514 kts | 102° |
| 2026-05-07 09:52 | 22.84927 | 61.02830 | 36806 ft | 513 kts | 102° |
| 2026-05-07 09:53 | 22.83500 | 61.10408 | 36804 ft | 513 kts | 102° |
| 2026-05-07 09:53 | 22.82071 | 61.17980 | 36807 ft | 512 kts | 102° |
| 2026-05-07 09:54 | 22.80639 | 61.25545 | 36808 ft | 512 kts | 102° |
| 2026-05-07 09:54 | 22.79207 | 61.33092 | 36807 ft | 511 kts | 102° |
| 2026-05-07 09:55 | 22.77772 | 61.40635 | 36809 ft | 511 kts | 102° |
| 2026-05-07 09:55 | 22.76344 | 61.48121 | 36807 ft | 511 kts | 102° |
| 2026-05-07 09:56 | 22.74903 | 61.55651 | 36812 ft | 510 kts | 102° |
| 2026-05-07 09:56 | 22.73449 | 61.63232 | 36814 ft | 511 kts | 102° |
| 2026-05-07 09:57 | 22.72001 | 61.70763 | 36811 ft | 511 kts | 102° |
| 2026-05-07 09:57 | 22.70550 | 61.78286 | 36812 ft | 511 kts | 102° |
| 2026-05-07 09:58 | 22.69093 | 61.85824 | 36814 ft | 511 kts | 102° |
| 2026-05-07 09:58 | 22.67632 | 61.93361 | 36813 ft | 511 kts | 102° |
| 2026-05-07 09:59 | 22.66166 | 62.00904 | 36814 ft | 512 kts | 102° |
| 2026-05-07 09:59 | 22.64709 | 62.08385 | 36814 ft | 512 kts | 102° |
| 2026-05-07 10:00 | 22.63234 | 62.15934 | 36814 ft | 512 kts | 102° |
| 2026-05-07 10:00 | 22.61755 | 62.23484 | 36822 ft | 513 kts | 102° |
| 2026-05-07 10:01 | 22.60272 | 62.31034 | 36816 ft | 513 kts | 102° |
| 2026-05-07 10:01 | 22.58786 | 62.38585 | 36813 ft | 513 kts | 102° |
| 2026-05-07 10:02 | 22.57296 | 62.46135 | 36813 ft | 513 kts | 102° |
| 2026-05-07 10:02 | 22.55799 | 62.53698 | 36813 ft | 513 kts | 102° |
| 2026-05-07 10:03 | 22.54300 | 62.61251 | 36812 ft | 513 kts | 102° |
| 2026-05-07 10:03 | 22.52799 | 62.68800 | 36810 ft | 513 kts | 102° |
| 2026-05-07 10:04 | 22.51294 | 62.76348 | 36813 ft | 513 kts | 102° |
| 2026-05-07 10:04 | 22.49788 | 62.83886 | 36811 ft | 512 kts | 102° |
| 2026-05-07 10:05 | 22.48279 | 62.91416 | 36815 ft | 512 kts | 102° |
| 2026-05-07 10:05 | 22.46779 | 62.98890 | 36810 ft | 512 kts | 102° |
| 2026-05-07 10:06 | 22.45265 | 63.06414 | 36811 ft | 512 kts | 102° |
| 2026-05-07 10:06 | 22.43284 | 63.13794 | 36822 ft | 511 kts | 112° |
| 2026-05-07 10:07 | 22.40259 | 63.20741 | 36820 ft | 511 kts | 117° |
| 2026-05-07 10:07 | 22.37098 | 63.27632 | 36818 ft | 512 kts | 117° |
| 2026-05-07 10:08 | 22.33961 | 63.34545 | 36817 ft | 512 kts | 116° |
| 2026-05-07 10:08 | 22.30867 | 63.41429 | 36818 ft | 513 kts | 116° |
| 2026-05-07 10:09 | 22.27754 | 63.48368 | 36816 ft | 513 kts | 116° |
| 2026-05-07 10:09 | 22.24640 | 63.55298 | 36818 ft | 513 kts | 116° |
| 2026-05-07 10:10 | 22.21516 | 63.62232 | 36816 ft | 513 kts | 116° |
| 2026-05-07 10:10 | 22.18392 | 63.69156 | 36818 ft | 513 kts | 116° |
| 2026-05-07 10:11 | 22.15265 | 63.76078 | 36819 ft | 514 kts | 116° |
| 2026-05-07 10:11 | 22.12130 | 63.83008 | 36818 ft | 513 kts | 116° |
| 2026-05-07 10:12 | 22.08995 | 63.89926 | 36824 ft | 513 kts | 116° |
| 2026-05-07 10:12 | 22.05859 | 63.96841 | 36816 ft | 513 kts | 116° |
| 2026-05-07 10:13 | 22.02722 | 64.03746 | 36818 ft | 513 kts | 116° |
| 2026-05-07 10:13 | 21.99584 | 64.10645 | 36822 ft | 513 kts | 116° |
| 2026-05-07 10:14 | 21.96463 | 64.17496 | 36813 ft | 513 kts | 116° |
| 2026-05-07 10:14 | 21.93318 | 64.24391 | 36820 ft | 513 kts | 116° |
| 2026-05-07 10:15 | 21.90174 | 64.31276 | 36818 ft | 512 kts | 116° |
| 2026-05-07 10:15 | 21.87025 | 64.38160 | 36821 ft | 512 kts | 116° |
| 2026-05-07 10:16 | 21.83874 | 64.45040 | 36827 ft | 512 kts | 116° |
| 2026-05-07 10:16 | 21.80719 | 64.51920 | 36822 ft | 512 kts | 116° |
| 2026-05-07 10:17 | 21.77562 | 64.58796 | 36821 ft | 512 kts | 116° |
| 2026-05-07 10:17 | 21.74401 | 64.65671 | 36825 ft | 512 kts | 116° |
| 2026-05-07 10:18 | 21.71236 | 64.72545 | 36818 ft | 513 kts | 116° |
| 2026-05-07 10:18 | 21.68089 | 64.79371 | 36828 ft | 512 kts | 116° |
| 2026-05-07 10:19 | 21.64918 | 64.86239 | 36821 ft | 512 kts | 116° |
| 2026-05-07 10:19 | 21.61748 | 64.93096 | 36820 ft | 512 kts | 116° |
| 2026-05-07 10:20 | 21.58578 | 64.99944 | 36826 ft | 511 kts | 117° |
| 2026-05-07 10:20 | 21.55407 | 65.06787 | 36825 ft | 511 kts | 117° |
| 2026-05-07 10:21 | 21.52235 | 65.13622 | 36824 ft | 511 kts | 117° |
| 2026-05-07 10:21 | 21.49062 | 65.20450 | 36825 ft | 511 kts | 117° |
| 2026-05-07 10:22 | 21.45879 | 65.27290 | 36825 ft | 511 kts | 117° |
| 2026-05-07 10:22 | 21.42698 | 65.34118 | 36826 ft | 511 kts | 117° |
| 2026-05-07 10:23 | 21.39515 | 65.40939 | 36826 ft | 511 kts | 117° |
| 2026-05-07 10:23 | 21.36330 | 65.47759 | 36824 ft | 511 kts | 117° |
| 2026-05-07 10:24 | 21.33142 | 65.54576 | 36826 ft | 511 kts | 117° |
| 2026-05-07 10:24 | 21.29951 | 65.61389 | 36834 ft | 511 kts | 117° |
| 2026-05-07 10:25 | 21.26778 | 65.68155 | 36825 ft | 511 kts | 117° |
| 2026-05-07 10:25 | 21.23559 | 65.75012 | 36824 ft | 511 kts | 117° |
| 2026-05-07 10:26 | 21.20903 | 65.80664 | 36828 ft | 511 kts | 117° |
| 2026-05-07 10:26 | 21.17188 | 65.88560 | 36824 ft | 511 kts | 117° |
| 2026-05-07 10:27 | 21.14525 | 65.94214 | 36829 ft | 510 kts | 117° |
| 2026-05-07 10:27 | 21.11325 | 66.01004 | 36826 ft | 510 kts | 117° |
| 2026-05-07 10:28 | 21.08197 | 66.07826 | 36828 ft | 510 kts | 116° |
| 2026-05-07 10:28 | 21.05111 | 66.14661 | 36827 ft | 510 kts | 116° |
| 2026-05-07 10:29 | 21.02015 | 66.21501 | 36820 ft | 510 kts | 116° |
| 2026-05-07 10:29 | 20.98907 | 66.28331 | 36823 ft | 510 kts | 116° |
| 2026-05-07 10:30 | 20.94234 | 66.38569 | 36825 ft | 510 kts | 116° |
| 2026-05-07 10:30 | 20.91117 | 66.45388 | 36824 ft | 510 kts | 116° |
| 2026-05-07 10:31 | 20.87994 | 66.52211 | 36825 ft | 510 kts | 116° |
| 2026-05-07 10:31 | 20.84869 | 66.59031 | 36824 ft | 511 kts | 116° |
| 2026-05-07 10:32 | 20.81746 | 66.65839 | 36822 ft | 511 kts | 116° |
| 2026-05-07 10:32 | 20.78612 | 66.72661 | 36818 ft | 511 kts | 116° |
| 2026-05-07 10:33 | 20.75481 | 66.79468 | 36825 ft | 510 kts | 116° |
| 2026-05-07 10:33 | 20.72348 | 66.86271 | 36824 ft | 510 kts | 116° |
| 2026-05-07 10:34 | 20.69313 | 66.93121 | 36824 ft | 510 kts | 114° |
| 2026-05-07 10:34 | 20.66441 | 67.00047 | 36825 ft | 510 kts | 114° |
| 2026-05-07 10:35 | 20.63571 | 67.06986 | 36825 ft | 511 kts | 114° |
| 2026-05-07 10:35 | 20.60674 | 67.13899 | 36825 ft | 511 kts | 114° |
| 2026-05-07 10:36 | 20.57754 | 67.20815 | 36824 ft | 511 kts | 114° |
| 2026-05-07 10:36 | 20.54849 | 67.27679 | 36824 ft | 511 kts | 115° |
| 2026-05-07 10:37 | 20.51900 | 67.34642 | 36826 ft | 512 kts | 114° |
| 2026-05-07 10:37 | 20.48986 | 67.41516 | 36825 ft | 512 kts | 115° |
| 2026-05-07 10:38 | 20.46049 | 67.48438 | 36825 ft | 512 kts | 115° |
| 2026-05-07 10:38 | 20.43104 | 67.55369 | 36829 ft | 513 kts | 115° |
| 2026-05-07 10:39 | 20.40158 | 67.62291 | 36821 ft | 513 kts | 115° |
| 2026-05-07 10:39 | 20.37208 | 67.69216 | 36823 ft | 513 kts | 115° |
| 2026-05-07 10:40 | 20.34253 | 67.76141 | 36821 ft | 513 kts | 115° |
| 2026-05-07 10:40 | 20.31296 | 67.83063 | 36833 ft | 513 kts | 115° |
| 2026-05-07 10:41 | 20.28338 | 67.89980 | 36819 ft | 512 kts | 115° |
| 2026-05-07 10:41 | 20.25385 | 67.96874 | 36822 ft | 511 kts | 115° |
| 2026-05-07 10:42 | 20.22432 | 68.03759 | 36819 ft | 511 kts | 115° |
| 2026-05-07 10:42 | 20.19480 | 68.10633 | 36822 ft | 510 kts | 115° |
| 2026-05-07 10:43 | 20.16548 | 68.17454 | 36820 ft | 510 kts | 115° |
| 2026-05-07 10:43 | 20.13590 | 68.24323 | 36819 ft | 510 kts | 115° |
| 2026-05-07 10:44 | 20.10635 | 68.31180 | 36820 ft | 510 kts | 115° |
| 2026-05-07 10:44 | 20.07671 | 68.38047 | 36815 ft | 511 kts | 115° |
| 2026-05-07 10:45 | 20.04704 | 68.44912 | 36821 ft | 511 kts | 115° |
| 2026-05-07 10:45 | 20.01729 | 68.51787 | 36821 ft | 511 kts | 115° |
| 2026-05-07 10:46 | 19.98755 | 68.58653 | 36819 ft | 512 kts | 115° |
| 2026-05-07 10:46 | 19.95792 | 68.65483 | 36821 ft | 512 kts | 115° |
| 2026-05-07 10:47 | 19.92810 | 68.72348 | 36824 ft | 512 kts | 115° |
| 2026-05-07 10:47 | 19.89821 | 68.79221 | 36821 ft | 512 kts | 115° |
| 2026-05-07 10:48 | 19.86829 | 68.86092 | 36821 ft | 512 kts | 115° |
| 2026-05-07 10:48 | 19.83832 | 68.92966 | 36816 ft | 512 kts | 115° |
| 2026-05-07 10:49 | 19.80835 | 68.99832 | 36820 ft | 512 kts | 115° |
| 2026-05-07 10:49 | 19.77841 | 69.06683 | 36818 ft | 512 kts | 115° |
| 2026-05-07 10:50 | 19.74842 | 69.13534 | 36819 ft | 511 kts | 115° |
| 2026-05-07 10:50 | 19.71845 | 69.20374 | 36818 ft | 511 kts | 115° |
| 2026-05-07 10:51 | 19.68842 | 69.27219 | 36820 ft | 511 kts | 115° |
| 2026-05-07 10:51 | 19.65842 | 69.34048 | 36819 ft | 511 kts | 115° |
| 2026-05-07 10:52 | 19.62855 | 69.40840 | 36817 ft | 511 kts | 115° |
| 2026-05-07 10:52 | 19.59844 | 69.47678 | 36816 ft | 511 kts | 115° |
| 2026-05-07 10:53 | 19.56834 | 69.54506 | 36813 ft | 511 kts | 115° |
| 2026-05-07 10:53 | 19.53818 | 69.61338 | 36813 ft | 511 kts | 115° |
| 2026-05-07 10:54 | 19.50803 | 69.68159 | 36814 ft | 511 kts | 115° |
| 2026-05-07 10:54 | 19.47786 | 69.74977 | 36814 ft | 511 kts | 115° |
| 2026-05-07 10:55 | 19.44766 | 69.81793 | 36814 ft | 511 kts | 115° |
| 2026-05-07 10:55 | 19.41743 | 69.88609 | 36812 ft | 511 kts | 115° |
| 2026-05-07 10:56 | 19.38719 | 69.95418 | 36811 ft | 511 kts | 116° |
| 2026-05-07 10:56 | 19.35691 | 70.02228 | 36811 ft | 511 kts | 116° |
| 2026-05-07 10:57 | 19.32679 | 70.08993 | 36805 ft | 511 kts | 116° |
| 2026-05-07 10:57 | 19.29648 | 70.15793 | 36805 ft | 510 kts | 116° |
| 2026-05-07 10:58 | 19.26613 | 70.22595 | 36799 ft | 510 kts | 116° |
| 2026-05-07 10:58 | 19.23583 | 70.29376 | 36803 ft | 510 kts | 116° |
| 2026-05-07 10:59 | 19.20549 | 70.36158 | 36802 ft | 510 kts | 116° |
| 2026-05-07 10:59 | 19.17515 | 70.42933 | 36804 ft | 510 kts | 116° |
| 2026-05-07 11:00 | 19.14474 | 70.49714 | 36804 ft | 510 kts | 116° |
| 2026-05-07 11:00 | 19.11432 | 70.56490 | 36808 ft | 510 kts | 116° |
| 2026-05-07 11:01 | 19.08388 | 70.63264 | 36802 ft | 510 kts | 116° |
| 2026-05-07 11:01 | 19.05336 | 70.70045 | 36800 ft | 510 kts | 116° |
| 2026-05-07 11:02 | 19.02288 | 70.76813 | 36799 ft | 510 kts | 116° |
| 2026-05-07 11:02 | 18.99235 | 70.83581 | 36800 ft | 510 kts | 116° |
| 2026-05-07 11:03 | 18.96179 | 70.90348 | 36797 ft | 510 kts | 116° |
| 2026-05-07 11:03 | 18.93123 | 70.97109 | 36797 ft | 510 kts | 116° |
| 2026-05-07 11:04 | 18.90064 | 71.03865 | 36791 ft | 510 kts | 116° |
| 2026-05-07 11:04 | 18.87002 | 71.10623 | 36791 ft | 510 kts | 116° |
| 2026-05-07 11:05 | 18.83958 | 71.17334 | 36791 ft | 510 kts | 116° |
| 2026-05-07 11:05 | 18.80885 | 71.24099 | 36786 ft | 511 kts | 116° |
| 2026-05-07 11:06 | 18.77810 | 71.30861 | 36786 ft | 511 kts | 116° |
| 2026-05-07 11:06 | 18.74733 | 71.37621 | 36735 ft | 512 kts | 116° |
| 2026-05-07 11:07 | 18.73172 | 71.41047 | 35928 ft | 520 kts | 116° |
| 2026-05-07 11:07 | 18.71623 | 71.44444 | 35159 ft | 508 kts | 116° |
| 2026-05-07 11:07 | 18.70089 | 71.47807 | 34309 ft | 511 kts | 116° |
| 2026-05-07 11:07 | 18.68541 | 71.51198 | 33342 ft | 515 kts | 116° |
| 2026-05-07 11:08 | 18.66985 | 71.54607 | 32329 ft | 518 kts | 115° |
| 2026-05-07 11:08 | 18.65413 | 71.58047 | 31354 ft | 521 kts | 115° |
| 2026-05-07 11:08 | 18.63837 | 71.61493 | 30389 ft | 524 kts | 115° |
| 2026-05-07 11:08 | 18.62261 | 71.64939 | 29697 ft | 519 kts | 115° |
| 2026-05-07 11:09 | 18.60698 | 71.68352 | 28931 ft | 515 kts | 115° |
| 2026-05-07 11:09 | 18.59151 | 71.71731 | 28231 ft | 509 kts | 114° |
| 2026-05-07 11:09 | 18.57618 | 71.75075 | 27559 ft | 504 kts | 114° |
| 2026-05-07 11:09 | 18.56100 | 71.78385 | 26920 ft | 499 kts | 114° |
| 2026-05-07 11:10 | 18.54594 | 71.81669 | 26273 ft | 495 kts | 114° |
| 2026-05-07 11:10 | 18.53102 | 71.84922 | 25605 ft | 492 kts | 114° |
| 2026-05-07 11:10 | 18.51614 | 71.88163 | 25066 ft | 486 kts | 114° |
| 2026-05-07 11:10 | 18.50162 | 71.91325 | 24856 ft | 473 kts | 114° |
| 2026-05-07 11:11 | 18.48745 | 71.94409 | 24655 ft | 461 kts | 114° |
| 2026-05-07 11:11 | 18.47363 | 71.97413 | 24461 ft | 450 kts | 114° |
| 2026-05-07 11:11 | 18.46015 | 72.00340 | 24284 ft | 439 kts | 114° |
| 2026-05-07 11:11 | 18.44943 | 72.03261 | 24077 ft | 419 kts | 98° |
| 2026-05-07 11:12 | 18.44803 | 72.06193 | 23943 ft | 399 kts | 79° |
| 2026-05-07 11:12 | 18.45431 | 72.08991 | 23605 ft | 388 kts | 66° |
| 2026-05-07 11:12 | 18.46534 | 72.11506 | 23137 ft | 369 kts | 54° |
| 2026-05-07 11:12 | 18.48083 | 72.13560 | 22683 ft | 351 kts | 43° |
| 2026-05-07 11:13 | 18.49731 | 72.15392 | 22292 ft | 339 kts | 43° |
| 2026-05-07 11:13 | 18.51329 | 72.17159 | 21898 ft | 328 kts | 43° |
| 2026-05-07 11:13 | 18.52883 | 72.18880 | 21533 ft | 323 kts | 43° |
| 2026-05-07 11:13 | 18.53936 | 72.20048 | 21301 ft | 327 kts | 43° |
| 2026-05-07 11:14 | 18.55532 | 72.21822 | 20946 ft | 340 kts | 44° |
| 2026-05-07 11:14 | 18.57181 | 72.23663 | 20539 ft | 349 kts | 44° |
| 2026-05-07 11:14 | 18.58844 | 72.25530 | 20123 ft | 350 kts | 44° |
| 2026-05-07 11:14 | 18.60508 | 72.27404 | 19712 ft | 350 kts | 45° |
| 2026-05-07 11:15 | 18.62148 | 72.29255 | 19300 ft | 340 kts | 46° |
| 2026-05-07 11:15 | 18.63742 | 72.31057 | 18900 ft | 331 kts | 45° |
| 2026-05-07 11:15 | 18.65295 | 72.32811 | 18508 ft | 323 kts | 46° |
| 2026-05-07 11:15 | 18.66786 | 72.34497 | 18138 ft | 316 kts | 47° |
| 2026-05-07 11:16 | 18.68282 | 72.36187 | 17728 ft | 315 kts | 47° |
| 2026-05-07 11:16 | 18.69797 | 72.37900 | 17350 ft | 323 kts | 47° |
| 2026-05-07 11:16 | 18.71345 | 72.39651 | 16945 ft | 329 kts | 47° |
| 2026-05-07 11:16 | 18.72911 | 72.41421 | 16543 ft | 330 kts | 47° |
| 2026-05-07 11:17 | 18.74477 | 72.43193 | 16137 ft | 330 kts | 47° |
| 2026-05-07 11:17 | 18.76039 | 72.44962 | 15749 ft | 329 kts | 47° |
| 2026-05-07 11:17 | 18.77601 | 72.46729 | 15360 ft | 329 kts | 47° |
| 2026-05-07 11:17 | 18.79159 | 72.48493 | 14967 ft | 328 kts | 47° |
| 2026-05-07 11:18 | 18.80715 | 72.50256 | 14578 ft | 328 kts | 47° |
| 2026-05-07 11:18 | 18.82273 | 72.52021 | 14167 ft | 329 kts | 47° |
| 2026-05-07 11:18 | 18.83831 | 72.53788 | 13782 ft | 329 kts | 47° |
| 2026-05-07 11:18 | 18.85364 | 72.55524 | 13351 ft | 319 kts | 48° |
| 2026-05-07 11:19 | 18.86865 | 72.57227 | 13096 ft | 313 kts | 48° |
| 2026-05-07 11:19 | 18.88328 | 72.58887 | 12964 ft | 304 kts | 48° |
| 2026-05-07 11:19 | 18.89730 | 72.60513 | 12794 ft | 292 kts | 54° |
| 2026-05-07 11:19 | 18.90579 | 72.62380 | 12668 ft | 277 kts | 79° |
| 2026-05-07 11:20 | 18.90764 | 72.64373 | 12603 ft | 275 kts | 89° |
| 2026-05-07 11:20 | 18.90842 | 72.66440 | 12503 ft | 288 kts | 89° |
| 2026-05-07 11:20 | 18.90917 | 72.68580 | 12377 ft | 293 kts | 89° |
| 2026-05-07 11:20 | 18.90994 | 72.70727 | 12247 ft | 291 kts | 89° |
| 2026-05-07 11:21 | 18.91071 | 72.72837 | 12114 ft | 287 kts | 89° |
| 2026-05-07 11:21 | 18.91149 | 72.74927 | 11998 ft | 283 kts | 89° |
| 2026-05-07 11:21 | 18.91228 | 72.77003 | 11886 ft | 283 kts | 89° |
| 2026-05-07 11:21 | 18.91308 | 72.79075 | 11771 ft | 282 kts | 89° |
| 2026-05-07 11:22 | 18.91389 | 72.81151 | 11663 ft | 282 kts | 89° |
| 2026-05-07 11:22 | 18.91470 | 72.83198 | 11550 ft | 283 kts | 89° |
| 2026-05-07 11:22 | 18.91552 | 72.85276 | 11436 ft | 284 kts | 89° |
| 2026-05-07 11:22 | 18.91634 | 72.87356 | 11324 ft | 284 kts | 89° |
| 2026-05-07 11:23 | 18.91716 | 72.89442 | 11201 ft | 285 kts | 89° |
| 2026-05-07 11:23 | 18.91798 | 72.91537 | 11085 ft | 285 kts | 89° |
| 2026-05-07 11:23 | 18.91880 | 72.93633 | 10974 ft | 285 kts | 88° |
| 2026-05-07 11:23 | 18.91963 | 72.95725 | 10864 ft | 285 kts | 88° |
| 2026-05-07 11:24 | 18.92045 | 72.97822 | 10743 ft | 286 kts | 88° |
| 2026-05-07 11:24 | 18.92127 | 72.99918 | 10628 ft | 285 kts | 88° |
| 2026-05-07 11:24 | 18.92209 | 73.02010 | 10519 ft | 285 kts | 89° |
| 2026-05-07 11:24 | 18.92290 | 73.04097 | 10461 ft | 281 kts | 88° |
| 2026-05-07 11:25 | 18.92370 | 73.06145 | 10449 ft | 279 kts | 89° |
| 2026-05-07 11:25 | 18.92450 | 73.08204 | 10394 ft | 283 kts | 88° |
| 2026-05-07 11:25 | 18.92530 | 73.10295 | 10303 ft | 287 kts | 88° |
| 2026-05-07 11:25 | 18.92610 | 73.12404 | 10189 ft | 288 kts | 88° |
| 2026-05-07 11:26 | 18.92690 | 73.14512 | 10081 ft | 286 kts | 89° |
| 2026-05-07 11:26 | 18.92773 | 73.16610 | 9855 ft | 286 kts | 88° |
| 2026-05-07 11:26 | 18.92860 | 73.18709 | 9624 ft | 286 kts | 88° |
| 2026-05-07 11:26 | 18.92947 | 73.20801 | 9356 ft | 284 kts | 88° |
| 2026-05-07 11:27 | 18.93034 | 73.22874 | 9101 ft | 280 kts | 88° |
| 2026-05-07 11:27 | 18.93119 | 73.24915 | 8881 ft | 277 kts | 88° |
| 2026-05-07 11:27 | 18.93202 | 73.26938 | 8648 ft | 274 kts | 88° |
| 2026-05-07 11:27 | 18.93285 | 73.28921 | 8424 ft | 273 kts | 88° |
| 2026-05-07 11:28 | 18.93367 | 73.30915 | 8183 ft | 270 kts | 86° |
| 2026-05-07 11:28 | 18.93773 | 73.32810 | 7932 ft | 265 kts | 59° |
| 2026-05-07 11:28 | 18.94958 | 73.34253 | 7754 ft | 259 kts | 31° |
| 2026-05-07 11:28 | 18.96610 | 73.34907 | 7477 ft | 252 kts | 2° |
| 2026-05-07 11:29 | 18.98282 | 73.34617 | 7271 ft | 240 kts | 332° |
| 2026-05-07 11:29 | 18.99591 | 73.33602 | 7091 ft | 228 kts | 316° |
| 2026-05-07 11:29 | 19.00687 | 73.32431 | 7047 ft | 225 kts | 313° |
| 2026-05-07 11:29 | 19.01769 | 73.31231 | 7049 ft | 228 kts | 313° |
| 2026-05-07 11:30 | 19.02878 | 73.29995 | 7069 ft | 234 kts | 313° |
| 2026-05-07 11:30 | 19.04009 | 73.28738 | 7066 ft | 238 kts | 313° |
| 2026-05-07 11:30 | 19.05151 | 73.27478 | 7041 ft | 236 kts | 313° |
| 2026-05-07 11:30 | 19.06282 | 73.26232 | 7064 ft | 234 kts | 313° |
| 2026-05-07 11:31 | 19.07407 | 73.24997 | 7041 ft | 233 kts | 313° |
| 2026-05-07 11:31 | 19.08512 | 73.23759 | 7027 ft | 229 kts | 307° |
| 2026-05-07 11:31 | 19.09161 | 73.22246 | 7005 ft | 231 kts | 277° |
| 2026-05-07 11:31 | 19.09280 | 73.20538 | 7047 ft | 236 kts | 272° |
| 2026-05-07 11:32 | 19.09295 | 73.17062 | 6725 ft | 236 kts | 269° |
| 2026-05-07 11:32 | 19.09271 | 73.15307 | 6089 ft | 242 kts | 270° |
| 2026-05-07 11:32 | 19.09245 | 73.13508 | 5272 ft | 249 kts | 270° |
| 2026-05-07 11:33 | 19.09218 | 73.11655 | 4479 ft | 258 kts | 270° |
| 2026-05-07 11:33 | 19.09191 | 73.09776 | 3937 ft | 255 kts | 270° |
| 2026-05-07 11:33 | 19.09165 | 73.07957 | 3578 ft | 239 kts | 271° |
| 2026-05-07 11:33 | 19.09140 | 73.06251 | 3261 ft | 225 kts | 271° |
| 2026-05-07 11:34 | 19.09119 | 73.04638 | 2975 ft | 215 kts | 271° |
| 2026-05-07 11:34 | 19.09100 | 73.03049 | 2764 ft | 218 kts | 271° |
| 2026-05-07 11:34 | 19.09076 | 73.01490 | 2456 ft | 205 kts | 271° |
| 2026-05-07 11:34 | 19.09054 | 73.00046 | 2242 ft | 187 kts | 271° |
| 2026-05-07 11:35 | 19.09035 | 72.98715 | 1964 ft | 173 kts | 272° |
| 2026-05-07 11:35 | 19.09021 | 72.97526 | 1782 ft | 153 kts | 271° |
| 2026-05-07 11:35 | 19.09005 | 72.96413 | 1592 ft | 153 kts | 271° |
| 2026-05-07 11:35 | 19.08990 | 72.95267 | 1399 ft | 156 kts | 270° |
| 2026-05-07 11:36 | 19.08974 | 72.94169 | 1221 ft | 146 kts | 271° |
| 2026-05-07 11:36 | 19.08959 | 72.93154 | 1016 ft | 131 kts | 273° |
| 2026-05-07 11:36 | 19.08947 | 72.92155 | 875 ft | 142 kts | 272° |
| 2026-05-07 11:36 | 19.08932 | 72.91105 | 703 ft | 143 kts | 273° |
| 2026-05-07 11:37 | 19.08916 | 72.90089 | 535 ft | 133 kts | 271° |
| 2026-05-07 11:37 | 19.08900 | 72.89117 | 379 ft | 128 kts | 273° |
| 2026-05-07 11:37 | 19.08889 | 72.88175 | 194 ft | 126 kts | 274° |
| 2026-05-07 11:37 | 19.08872 | 72.87219 | 59 ft | 129 kts | 274° |
| 2026-05-07 11:38 | 19.08877 | 72.86393 | 51 ft | 90 kts | 267° |
| 2026-05-07 11:38 | 19.08866 | 72.85912 | 48 ft | 54 kts | 270° |
| 2026-05-07 11:38 | 19.08884 | 72.85652 | 48 ft | 32 kts | 287° |
| 2026-05-07 11:38 | 19.08942 | 72.85510 | 51 ft | 10 kts | 306° |
| 2026-05-07 11:39 | 19.09003 | 72.85495 | 52 ft | 10 kts | 30° |
| 2026-05-07 11:39 | 19.09025 | 72.85563 | 49 ft | 10 kts | 89° |
| 2026-05-07 11:39 | 19.09027 | 72.85641 | 54 ft | 11 kts | 88° |
| 2026-05-07 11:39 | 19.09029 | 72.85724 | 54 ft | 11 kts | 89° |
| 2026-05-07 11:40 | 19.09030 | 72.85806 | 53 ft | 13 kts | 89° |
| 2026-05-07 11:40 | 19.09032 | 72.85939 | 53 ft | 21 kts | 89° |
| 2026-05-07 11:40 | 19.09034 | 72.86097 | 53 ft | 21 kts | 89° |
| 2026-05-07 11:40 | 19.09036 | 72.86255 | 53 ft | 21 kts | 87° |
| 2026-05-07 11:41 | 19.09039 | 72.86413 | 48 ft | 21 kts | 89° |
| 2026-05-07 11:41 | 19.09040 | 72.86570 | 49 ft | 21 kts | 86° |
| 2026-05-07 11:41 | 19.09043 | 72.86708 | 55 ft | 11 kts | 89° |
| 2026-05-07 11:41 | 19.09065 | 72.86780 | 50 ft | 11 kts | 49° |
| 2026-05-07 11:42 | 19.09118 | 72.86841 | 47 ft | 11 kts | 49° |
| 2026-05-07 11:42 | 19.09133 | 72.86922 | 52 ft | 11 kts | 89° |
| 2026-05-07 11:42 | 19.09135 | 72.87006 | 54 ft | 11 kts | 88° |
| 2026-05-07 11:42 | 19.09136 | 72.87124 | 54 ft | 23 kts | 90° |
| 2026-05-07 11:43 | 19.09143 | 72.87237 | 48 ft | 12 kts | 67° |
| 2026-05-07 11:43 | 19.09218 | 72.87278 | 50 ft | 13 kts | 37° |
| 2026-05-07 11:43 | 19.09265 | 72.87354 | 49 ft | 13 kts | 29° |
| 2026-05-07 11:43 | 19.09339 | 72.87368 | 48 ft | 7 kts | 1° |
| 2026-05-07 11:44 | 19.09382 | 72.87346 | 50 ft | 7 kts | 307° |
| 2026-05-07 11:44 | 19.09408 | 72.87300 | 48 ft | 2 kts | 299° |
| 2026-05-07 11:44 | 19.09409 | 72.87298 | 54 ft | 1 kts | 299° |
| 2026-05-07 11:44 | 19.09412 | 72.87293 | 47 ft | 1 kts | 299° |
| 2026-05-07 11:45 | 19.09413 | 72.87290 | 47 ft | 0 kts | 299° |